createdAt,value
2022-07-28T00:00:48.344Z,97476.50
2022-07-28T00:03:14.953Z,97480.47
2022-07-28T00:05:41.668Z,97486.09
2022-07-28T00:08:10.173Z,97475.91
2022-07-28T00:10:36.814Z,97484.44
2022-07-28T00:13:03.942Z,97480.66
2022-07-28T00:15:34.173Z,97480.47
2022-07-28T00:18:01.088Z,97478.00
2022-07-28T00:20:28.105Z,97479.34
2022-07-28T00:22:54.682Z,97475.91
2022-07-28T00:25:21.249Z,97461.72
2022-07-28T00:27:48.444Z,97464.94
2022-07-28T00:30:15.007Z,97465.59
2022-07-28T00:32:41.791Z,97465.59
2022-07-28T00:35:08.938Z,97467.94
2022-07-28T00:37:35.751Z,97475.03
2022-07-28T00:40:07.795Z,97468.28
2022-07-28T00:42:34.319Z,97464.31
2022-07-28T00:45:01.178Z,97462.66
2022-07-28T00:47:27.765Z,97465.94
2022-07-28T00:50:00.889Z,97457.41
2022-07-28T00:52:27.456Z,97455.75
2022-07-28T00:54:54.107Z,97453.47
2022-07-28T00:57:21.862Z,97456.28
2022-07-28T00:59:48.421Z,97449.53
2022-07-28T01:02:15.251Z,97449.19
2022-07-28T01:04:42.032Z,97446.84
2022-07-28T01:07:32.859Z,97443.56
2022-07-28T01:10:07.084Z,97438.34
2022-07-28T01:13:01.562Z,97444.44
2022-07-28T01:15:36.599Z,97438.69
2022-07-28T01:18:25.477Z,97447.09
2022-07-28T01:21:29.205Z,97442.94
2022-07-28T01:24:24.139Z,97442.03
2022-07-28T01:27:00.683Z,97439.09
2022-07-28T01:29:55.385Z,97453.25
2022-07-28T01:32:28.655Z,97441.75
2022-07-28T01:35:09.347Z,97434.84
2022-07-28T01:37:41.750Z,97443.56
2022-07-28T01:40:09.720Z,97440.75
2022-07-28T01:42:43.563Z,97435.00
2022-07-28T01:45:11.642Z,97429.75
2022-07-28T01:47:40.014Z,97424.66
2022-07-28T01:50:08.612Z,97423.13
2022-07-28T01:52:35.843Z,97425.63
2022-07-28T01:55:02.554Z,97421.63
2022-07-28T01:57:31.052Z,97409.81
2022-07-28T01:59:59.427Z,97411.44
2022-07-28T02:02:27.403Z,97411.78
2022-07-28T02:04:56.274Z,97412.47
2022-07-28T02:07:23.317Z,97423.53
2022-07-28T02:09:49.911Z,97417.16
2022-07-28T02:12:18.231Z,97412.88
2022-07-28T02:14:47.320Z,97413.41
2022-07-28T02:17:17.937Z,97401.59
2022-07-28T02:19:46.437Z,97403.72
2022-07-28T02:22:14.127Z,97406.03
2022-07-28T02:24:41.179Z,97396.56
2022-07-28T02:27:22.655Z,97390.78
2022-07-28T02:29:51.505Z,97396.72
2022-07-28T02:32:28.669Z,97401.50
2022-07-28T02:35:16.261Z,97398.56
2022-07-28T02:37:47.496Z,97397.41
2022-07-28T02:40:15.488Z,97396.94
2022-07-28T02:42:45.730Z,97397.09
2022-07-28T02:45:13.167Z,97390.38
2022-07-28T02:47:49.074Z,97385.59
2022-07-28T02:50:16.991Z,97382.78
2022-07-28T02:52:45.324Z,97387.22
2022-07-28T02:55:14.169Z,97395.28
2022-07-28T02:57:41.523Z,97382.31
2022-07-28T03:00:08.881Z,97389.03
2022-07-28T03:02:36.789Z,97387.06
2022-07-28T03:05:07.610Z,97379.00
2022-07-28T03:07:43.772Z,97385.75
2022-07-28T03:10:33.334Z,97380.69
2022-07-28T03:13:02.409Z,97387.94
2022-07-28T03:15:29.082Z,97388.06
2022-07-28T03:17:55.638Z,97387.59
2022-07-28T03:20:22.246Z,97381.53
2022-07-28T03:22:48.884Z,97390.41
2022-07-28T03:25:28.734Z,97392.53
2022-07-28T03:27:56.244Z,97387.78
2022-07-28T03:30:28.905Z,97396.47
2022-07-28T03:32:57.643Z,97400.72
2022-07-28T03:35:24.515Z,97401.41
2022-07-28T03:37:55.428Z,97395.13
2022-07-28T03:40:25.958Z,97398.44
2022-07-28T03:42:53.972Z,97397.63
2022-07-28T03:45:20.691Z,97402.56
2022-07-28T03:47:55.171Z,97391.03
2022-07-28T03:50:25.841Z,97396.97
2022-07-28T03:52:52.729Z,97382.84
2022-07-28T03:55:19.344Z,97399.59
2022-07-28T03:57:46.034Z,97390.69
2022-07-28T04:00:14.714Z,97388.75
2022-07-28T04:02:44.246Z,97379.06
2022-07-28T04:05:15.574Z,97383.50
2022-07-28T04:07:42.744Z,97381.84
2022-07-28T04:10:12.508Z,97379.56
2022-07-28T04:12:50.306Z,97382.53
2022-07-28T04:15:17.519Z,97384.50
2022-07-28T04:17:44.454Z,97380.22
2022-07-28T04:20:11.929Z,97380.41
2022-07-28T04:22:38.526Z,97378.25
2022-07-28T04:25:06.144Z,97377.91
2022-07-28T04:27:35.115Z,97384.50
2022-07-28T04:30:03.545Z,97376.91
2022-07-28T04:32:30.122Z,97381.88
2022-07-28T04:34:56.862Z,97375.78
2022-07-28T04:37:23.427Z,97375.59
2022-07-28T04:39:51.064Z,97382.34
2022-07-28T04:42:21.027Z,97380.19
2022-07-28T04:44:47.598Z,97374.28
2022-07-28T04:47:14.340Z,97376.53
2022-07-28T04:49:41.337Z,97385.25
2022-07-28T04:52:10.791Z,97386.38
2022-07-28T04:54:38.079Z,97384.09
2022-07-28T04:57:10.423Z,97388.88
2022-07-28T04:59:39.368Z,97375.19
2022-07-28T05:02:06.705Z,97377.31
2022-07-28T05:04:33.460Z,97381.06
2022-07-28T05:07:02.141Z,97385.66
2022-07-28T05:09:38.328Z,97378.72
2022-07-28T05:12:05.839Z,97381.34
2022-07-28T05:14:32.719Z,97382.00
2022-07-28T05:16:59.363Z,97368.84
2022-07-28T05:19:26.068Z,97365.53
2022-07-28T05:21:52.661Z,97376.19
2022-07-28T05:24:19.349Z,97365.84
2022-07-28T05:26:45.878Z,97366.13
2022-07-28T05:29:12.485Z,97369.72
2022-07-28T05:31:39.335Z,97373.19
2022-07-28T05:34:06.204Z,97370.19
2022-07-28T05:36:32.816Z,97367.69
2022-07-28T05:38:59.418Z,97373.25
2022-07-28T05:41:26.012Z,97369.88
2022-07-28T05:43:52.567Z,97377.28
2022-07-28T05:46:20.842Z,97377.34
2022-07-28T05:48:47.602Z,97365.41
2022-07-28T05:51:14.220Z,97372.19
2022-07-28T05:53:40.790Z,97376.47
2022-07-28T05:56:07.327Z,97371.16
2022-07-28T05:58:33.872Z,97368.84
2022-07-28T06:01:01.871Z,97369.41
2022-07-28T06:03:31.836Z,97372.75
2022-07-28T06:06:14.324Z,97374.44
2022-07-28T06:08:43.015Z,97369.34
2022-07-28T06:11:09.863Z,97371.31
2022-07-28T06:13:36.531Z,97364.69
2022-07-28T06:16:12.990Z,97377.00
2022-07-28T06:18:40.065Z,97365.34
2022-07-28T06:21:06.644Z,97367.53
2022-07-28T06:23:33.216Z,97364.56
2022-07-28T06:26:00.454Z,97371.91
2022-07-28T06:28:26.995Z,97370.06
2022-07-28T06:30:53.547Z,97363.91
2022-07-28T06:33:20.096Z,97357.56
2022-07-28T06:35:51.117Z,97365.34
2022-07-28T06:38:20.395Z,97371.44
2022-07-28T06:40:47.613Z,97373.84
2022-07-28T06:43:14.807Z,97357.78
2022-07-28T06:45:41.550Z,97370.47
2022-07-28T06:48:08.814Z,97372.19
2022-07-28T06:50:36.444Z,97371.28
2022-07-28T06:53:03.036Z,97374.09
2022-07-28T06:55:34.541Z,97367.94
2022-07-28T06:58:06.052Z,97365.88
2022-07-28T07:00:33.073Z,97356.81
2022-07-28T07:03:00.777Z,97361.13
2022-07-28T07:05:29.983Z,97364.03
2022-07-28T07:07:56.620Z,97357.47
2022-07-28T07:10:23.354Z,97361.44
2022-07-28T07:12:49.915Z,97362.94
2022-07-28T07:15:16.509Z,97361.03
2022-07-28T07:17:43.046Z,97359.63
2022-07-28T07:20:10.098Z,97358.13
2022-07-28T07:22:42.794Z,97353.94
2022-07-28T07:25:17.324Z,97349.00
2022-07-28T07:27:44.629Z,97364.19
2022-07-28T07:30:11.965Z,97347.28
2022-07-28T07:32:38.992Z,97355.72
2022-07-28T07:35:06.366Z,97357.09
2022-07-28T07:37:32.908Z,97349.25
2022-07-28T07:40:03.682Z,97349.00
2022-07-28T07:42:30.288Z,97344.03
2022-07-28T07:44:56.851Z,97343.56
2022-07-28T07:47:23.492Z,97343.56
2022-07-28T07:49:50.084Z,97339.50
2022-07-28T07:52:16.605Z,97336.00
2022-07-28T07:54:43.486Z,97332.75
2022-07-28T07:57:10.270Z,97331.00
2022-07-28T07:59:36.918Z,97341.56
2022-07-28T08:02:03.528Z,97331.13
2022-07-28T08:04:30.263Z,97337.88
2022-07-28T08:06:56.872Z,97338.19
2022-07-28T08:09:23.534Z,97339.00
2022-07-28T08:11:50.078Z,97338.56
2022-07-28T08:14:17.463Z,97336.69
2022-07-28T08:16:44.597Z,97324.63
2022-07-28T08:19:11.742Z,97327.63
2022-07-28T08:21:38.682Z,97321.22
2022-07-28T08:24:05.745Z,97316.41
2022-07-28T08:26:32.291Z,97328.34
2022-07-28T08:28:58.882Z,97320.97
2022-07-28T08:31:25.982Z,97315.84
2022-07-28T08:33:54.359Z,97322.81
2022-07-28T08:36:22.249Z,97315.69
2022-07-28T08:38:48.840Z,97300.53
2022-07-28T08:41:33.561Z,97304.72
2022-07-28T08:44:03.408Z,97308.16
2022-07-28T08:46:35.423Z,97299.41
2022-07-28T08:49:05.474Z,97311.78
2022-07-28T08:51:32.149Z,97309.00
2022-07-28T08:53:59.000Z,97295.41
2022-07-28T08:56:25.677Z,97307.72
2022-07-28T08:58:52.416Z,97303.44
2022-07-28T09:01:19.030Z,97307.66
2022-07-28T09:03:45.958Z,97299.94
2022-07-28T09:06:12.506Z,97299.44
2022-07-28T09:08:39.032Z,97310.34
2022-07-28T09:11:08.110Z,97304.84
2022-07-28T09:13:35.842Z,97302.41
2022-07-28T09:16:02.556Z,97292.53
2022-07-28T09:18:29.144Z,97298.69
2022-07-28T09:20:55.815Z,97307.00
2022-07-28T09:23:42.469Z,97304.03
2022-07-28T09:26:12.021Z,97295.03
2022-07-28T09:28:57.416Z,97299.69
2022-07-28T09:31:26.177Z,97309.44
2022-07-28T09:34:01.162Z,97303.63
2022-07-28T09:36:38.780Z,97291.53
2022-07-28T09:39:05.383Z,97293.72
2022-07-28T09:41:49.049Z,97298.69
2022-07-28T09:44:19.881Z,97289.00
2022-07-28T09:46:46.624Z,97284.06
2022-07-28T09:49:13.455Z,97288.41
2022-07-28T09:51:40.203Z,97290.06
2022-07-28T09:54:14.724Z,97288.34
2022-07-28T09:56:45.449Z,97274.50
2022-07-28T09:59:14.608Z,97285.69
2022-07-28T10:01:54.294Z,97280.31
2022-07-28T10:04:41.525Z,97285.41
2022-07-28T10:07:19.707Z,97277.84
2022-07-28T10:10:07.128Z,97268.84
2022-07-28T10:12:35.449Z,97279.31
2022-07-28T10:15:31.980Z,97265.50
2022-07-28T10:17:58.596Z,97264.91
2022-07-28T10:20:26.998Z,97264.19
2022-07-28T10:23:05.406Z,97253.91
2022-07-28T10:25:33.820Z,97264.72
2022-07-28T10:28:02.463Z,97261.44
2022-07-28T10:30:31.570Z,97255.34
2022-07-28T10:32:59.738Z,97257.25
2022-07-28T10:35:27.029Z,97255.69
2022-07-28T10:38:00.477Z,97253.19
2022-07-28T10:40:29.849Z,97241.13
2022-07-28T10:42:56.830Z,97240.72
2022-07-28T10:45:32.598Z,97238.34
2022-07-28T10:48:09.191Z,97249.59
2022-07-28T10:50:39.168Z,97247.03
2022-07-28T10:53:09.603Z,97242.81
2022-07-28T10:56:08.627Z,97250.91
2022-07-28T10:58:50.114Z,97240.50
2022-07-28T11:01:52.540Z,97245.63
2022-07-28T11:04:40.915Z,97242.94
2022-07-28T11:07:12.266Z,97240.38
2022-07-28T11:09:39.466Z,97237.09
2022-07-28T11:12:06.406Z,97224.91
2022-07-28T11:14:39.448Z,97224.09
2022-07-28T11:17:10.123Z,97226.47
2022-07-28T11:20:06.772Z,97222.88
2022-07-28T11:22:30.440Z,97236.78
2022-07-28T11:25:18.837Z,97222.81
2022-07-28T11:27:50.006Z,97218.16
2022-07-28T11:30:19.659Z,97219.03
2022-07-28T11:32:53.444Z,97228.13
2022-07-28T11:35:30.306Z,97216.38
2022-07-28T11:38:02.894Z,97214.84
2022-07-28T11:40:36.678Z,97212.75
2022-07-28T11:43:36.552Z,97205.84
2022-07-28T11:46:04.875Z,97203.78
2022-07-28T11:48:37.177Z,97186.38
2022-07-28T11:51:03.694Z,97178.88
2022-07-28T11:53:53.134Z,97182.94
2022-07-28T11:56:29.121Z,97192.97
2022-07-28T11:59:01.047Z,97188.56
2022-07-28T12:01:27.720Z,97191.91
2022-07-28T12:04:01.563Z,97179.00
2022-07-28T12:06:36.044Z,97176.28
2022-07-28T12:09:07.582Z,97188.06
2022-07-28T12:11:35.833Z,97181.22
2022-07-28T12:14:14.482Z,97173.53
2022-07-28T12:16:43.712Z,97184.78
2022-07-28T12:19:11.300Z,97176.97
2022-07-28T12:21:47.832Z,97179.91
2022-07-28T12:24:15.822Z,97172.97
2022-07-28T12:26:43.714Z,97166.50
2022-07-28T12:29:15.063Z,97169.94
2022-07-28T12:32:02.498Z,97166.88
2022-07-28T12:34:30.742Z,97173.88
2022-07-28T12:37:02.070Z,97171.47
2022-07-28T12:39:42.304Z,97167.88
2022-07-28T12:42:10.734Z,97169.31
2022-07-28T12:44:38.006Z,97164.41
2022-07-28T12:47:07.858Z,97160.94
2022-07-28T12:49:37.410Z,97160.84
2022-07-28T12:52:23.781Z,97153.25
2022-07-28T12:54:56.112Z,97143.13
2022-07-28T12:57:48.797Z,97145.53
2022-07-28T13:00:19.694Z,97152.19
2022-07-28T13:02:47.450Z,97152.69
2022-07-28T13:05:54.724Z,97148.75
2022-07-28T13:08:25.208Z,97162.19
2022-07-28T13:10:57.392Z,97142.72
2022-07-28T13:13:25.897Z,97145.16
2022-07-28T13:16:18.220Z,97146.84
2022-07-28T13:18:51.399Z,97147.72
2022-07-28T13:21:56.151Z,97146.72
2022-07-28T13:24:26.657Z,97133.97
2022-07-28T13:26:53.243Z,97142.59
2022-07-28T13:29:19.838Z,97136.25
2022-07-28T13:31:46.537Z,97139.13
2022-07-28T13:34:13.793Z,97138.50
2022-07-28T13:36:40.538Z,97131.53
2022-07-28T13:39:07.880Z,97129.28
2022-07-28T13:41:48.697Z,97132.50
2022-07-28T13:44:21.394Z,97123.84
2022-07-28T13:46:49.895Z,97128.28
2022-07-28T13:49:16.974Z,97112.47
2022-07-28T13:51:43.634Z,97112.84
2022-07-28T13:54:11.006Z,97118.97
2022-07-28T13:56:37.603Z,97121.59
2022-07-28T13:59:04.171Z,97125.16
2022-07-28T14:01:35.960Z,97111.91
2022-07-28T14:04:04.452Z,97121.75
2022-07-28T14:06:31.015Z,97116.69
2022-07-28T14:08:57.781Z,97106.28
2022-07-28T14:11:24.357Z,97118.34
2022-07-28T14:13:53.790Z,97124.19
2022-07-28T14:16:21.185Z,97125.66
2022-07-28T14:18:48.221Z,97124.94
2022-07-28T14:21:14.776Z,97119.44
2022-07-28T14:23:41.750Z,97122.44
2022-07-28T14:26:34.511Z,97128.06
2022-07-28T14:28:55.687Z,97123.34
2022-07-28T14:31:22.447Z,97119.03
2022-07-28T14:33:54.247Z,97115.81
2022-07-28T14:36:21.872Z,97119.81
2022-07-28T14:38:55.728Z,97114.31
2022-07-28T14:41:22.568Z,97114.03
2022-07-28T14:43:49.134Z,97115.88
2022-07-28T14:46:20.879Z,97106.94
2022-07-28T14:48:47.967Z,97111.91
2022-07-28T14:51:14.672Z,97112.19
2022-07-28T14:53:43.435Z,97114.06
2022-07-28T14:56:17.940Z,97119.22
2022-07-28T14:58:44.481Z,97114.03
2022-07-28T15:01:11.066Z,97102.53
2022-07-28T15:03:37.679Z,97104.34
2022-07-28T15:06:09.989Z,97101.19
2022-07-28T15:08:36.711Z,97105.56
2022-07-28T15:11:03.346Z,97105.94
2022-07-28T15:13:29.934Z,97107.72
2022-07-28T15:15:57.083Z,97101.56
2022-07-28T15:18:24.462Z,97104.00
2022-07-28T15:20:51.268Z,97110.97
2022-07-28T15:23:17.868Z,97106.59
2022-07-28T15:25:46.435Z,97111.31
2022-07-28T15:28:14.201Z,97107.56
2022-07-28T15:30:51.433Z,97106.88
2022-07-28T15:33:19.698Z,97104.09
2022-07-28T15:35:58.763Z,97096.78
2022-07-28T15:38:27.726Z,97103.28
2022-07-28T15:40:55.046Z,97100.00
2022-07-28T15:43:23.956Z,97107.34
2022-07-28T15:45:51.073Z,97103.19
2022-07-28T15:48:17.656Z,97106.50
2022-07-28T15:50:48.418Z,97099.47
2022-07-28T15:53:18.464Z,97110.97
2022-07-28T15:55:50.558Z,97100.13
2022-07-28T15:58:17.975Z,97093.34
2022-07-28T16:00:46.008Z,97097.53
2022-07-28T16:03:13.104Z,97096.47
2022-07-28T16:05:40.053Z,97095.38
2022-07-28T16:08:06.973Z,97095.94
2022-07-28T16:10:33.799Z,97098.03
2022-07-28T16:13:01.636Z,97089.72
2022-07-28T16:15:28.289Z,97092.19
2022-07-28T16:17:55.195Z,97096.53
2022-07-28T16:20:22.113Z,97087.09
2022-07-28T16:22:48.659Z,97084.91
2022-07-28T16:25:20.412Z,97084.66
2022-07-28T16:27:48.011Z,97087.63
2022-07-28T16:30:15.537Z,97084.94
2022-07-28T16:32:42.426Z,97085.75
2022-07-28T16:35:09.649Z,97086.56
2022-07-28T16:37:36.446Z,97093.31
2022-07-28T16:40:04.338Z,97093.88
2022-07-28T16:42:31.667Z,97093.38
2022-07-28T16:44:58.296Z,97094.72
2022-07-28T16:47:25.051Z,97096.88
2022-07-28T16:49:51.619Z,97100.63
2022-07-28T16:52:18.171Z,97099.81
2022-07-28T16:54:45.742Z,97086.34
2022-07-28T16:57:14.946Z,97097.69
2022-07-28T16:59:48.883Z,97098.25
2022-07-28T17:02:16.722Z,97094.69
2022-07-28T17:04:43.333Z,97101.41
2022-07-28T17:07:09.950Z,97095.97
2022-07-28T17:09:36.488Z,97103.00
2022-07-28T17:12:03.195Z,97086.59
2022-07-28T17:14:29.731Z,97096.53
2022-07-28T17:16:56.303Z,97090.13
2022-07-28T17:19:22.917Z,97096.53
2022-07-28T17:21:49.575Z,97095.47
2022-07-28T17:24:16.502Z,97102.19
2022-07-28T17:27:35.357Z,97099.25
2022-07-28T17:29:30.046Z,97096.00
2022-07-28T17:31:56.669Z,97094.94
2022-07-28T17:34:24.015Z,97099.75
2022-07-28T17:36:50.849Z,97098.13
2022-07-28T17:39:17.371Z,97105.59
2022-07-28T17:41:43.946Z,97103.94
2022-07-28T17:44:10.522Z,97095.31
2022-07-28T17:46:37.238Z,97096.06
2022-07-28T17:49:05.679Z,97101.38
2022-07-28T17:51:32.451Z,97103.53
2022-07-28T17:53:59.179Z,97100.59
2022-07-28T17:56:26.094Z,97108.63
2022-07-28T17:58:52.830Z,97107.03
2022-07-28T18:01:19.443Z,97106.47
2022-07-28T18:03:59.661Z,97107.28
2022-07-28T18:06:33.434Z,97108.56
2022-07-28T18:09:07.017Z,97096.63
2022-07-28T18:11:43.403Z,97100.31
2022-07-28T18:14:26.653Z,97102.38
2022-07-28T18:16:53.383Z,97100.06
2022-07-28T18:19:19.973Z,97102.72
2022-07-28T18:21:46.536Z,97090.50
2022-07-28T18:24:13.503Z,97098.78
2022-07-28T18:26:40.661Z,97101.94
2022-07-28T18:29:07.306Z,97099.72
2022-07-28T18:31:33.909Z,97103.59
2022-07-28T18:34:00.460Z,97104.56
2022-07-28T18:36:27.064Z,97099.88
2022-07-28T18:38:53.591Z,97103.63
2022-07-28T18:41:20.272Z,97103.56
2022-07-28T18:43:46.831Z,97110.38
2022-07-28T18:46:14.079Z,97109.44
2022-07-28T18:48:40.712Z,97104.81
2022-07-28T18:51:07.423Z,97108.00
2022-07-28T18:53:34.450Z,97109.25
2022-07-28T18:56:01.047Z,97123.34
2022-07-28T18:58:27.579Z,97121.31
2022-07-28T19:00:54.711Z,97123.75
2022-07-28T19:03:21.369Z,97119.94
2022-07-28T19:05:47.937Z,97135.94
2022-07-28T19:08:14.524Z,97130.41
2022-07-28T19:10:42.742Z,97134.00
2022-07-28T19:13:12.814Z,97121.50
2022-07-28T19:15:40.787Z,97137.19
2022-07-28T19:18:11.328Z,97142.09
2022-07-28T19:20:41.537Z,97135.06
2022-07-28T19:23:08.101Z,97132.38
2022-07-28T19:25:36.270Z,97143.56
2022-07-28T19:28:03.828Z,97144.44
2022-07-28T19:30:31.979Z,97139.19
2022-07-28T19:32:59.034Z,97140.38
2022-07-28T19:35:25.713Z,97147.59
2022-07-28T19:37:52.290Z,97150.75
2022-07-28T19:40:18.847Z,97148.81
2022-07-28T19:42:47.061Z,97140.44
2022-07-28T19:45:13.627Z,97147.69
2022-07-28T19:47:40.174Z,97158.88
2022-07-28T19:50:06.967Z,97160.13
2022-07-28T19:52:34.392Z,97167.19
2022-07-28T19:55:01.131Z,97159.75
2022-07-28T19:57:30.834Z,97161.84
2022-07-28T19:59:58.768Z,97165.91
2022-07-28T20:02:25.345Z,97154.53
2022-07-28T20:04:51.921Z,97166.84
2022-07-28T20:07:18.697Z,97165.94
2022-07-28T20:09:45.294Z,97166.66
2022-07-28T20:12:11.902Z,97164.69
2022-07-28T20:14:38.510Z,97165.66
2022-07-28T20:17:05.238Z,97165.75
2022-07-28T20:19:32.368Z,97176.13
2022-07-28T20:21:58.951Z,97180.56
2022-07-28T20:24:25.520Z,97174.97
2022-07-28T20:26:52.110Z,97166.19
2022-07-28T20:29:18.734Z,97177.69
2022-07-28T20:31:45.264Z,97171.06
2022-07-28T20:34:13.124Z,97171.28
2022-07-28T20:36:40.072Z,97174.09
2022-07-28T20:39:27.572Z,97167.72
2022-07-28T20:41:53.228Z,97169.97
2022-07-28T20:44:28.773Z,97178.69
2022-07-28T20:46:58.624Z,97181.38
2022-07-28T20:49:25.339Z,97184.50
2022-07-28T20:51:51.987Z,97181.03
2022-07-28T20:54:19.029Z,97182.41
2022-07-28T20:56:45.610Z,97168.47
2022-07-28T20:59:12.181Z,97176.63
2022-07-28T21:01:39.173Z,97186.59
2022-07-28T21:04:05.869Z,97184.25
2022-07-28T21:06:32.571Z,97193.06
2022-07-28T21:09:01.531Z,97194.09
2022-07-28T21:11:28.761Z,97193.28
2022-07-28T21:14:01.751Z,97195.97
2022-07-28T21:16:28.411Z,97197.94
2022-07-28T21:18:55.065Z,97201.50
2022-07-28T21:21:22.117Z,97196.50
2022-07-28T21:23:49.426Z,97198.00
2022-07-28T21:26:16.601Z,97201.59
2022-07-28T21:29:01.865Z,97198.91
2022-07-28T21:31:28.509Z,97191.47
2022-07-28T21:33:55.251Z,97201.03
2022-07-28T21:36:21.793Z,97194.53
2022-07-28T21:38:48.430Z,97191.13
2022-07-28T21:41:15.023Z,97190.75
2022-07-28T21:43:41.888Z,97197.31
2022-07-28T21:46:09.671Z,97201.34
2022-07-28T21:48:36.380Z,97196.94
2022-07-28T21:51:03.006Z,97194.28
2022-07-28T21:53:29.576Z,97194.56
2022-07-28T21:55:57.128Z,97191.03
2022-07-28T21:58:23.701Z,97193.09
2022-07-28T22:00:50.280Z,97190.88
2022-07-28T22:03:16.880Z,97196.41
2022-07-28T22:05:43.581Z,97199.16
2022-07-28T22:08:10.860Z,97197.31
2022-07-28T22:10:37.471Z,97195.31
2022-07-28T22:13:04.083Z,97208.88
2022-07-28T22:15:30.654Z,97215.19
2022-07-28T22:17:57.216Z,97206.84
2022-07-28T22:20:23.737Z,97194.88
2022-07-28T22:22:50.248Z,97196.78
2022-07-28T22:25:16.840Z,97199.41
2022-07-28T22:27:43.366Z,97202.31
2022-07-28T22:30:10.201Z,97213.41
2022-07-28T22:32:36.753Z,97206.50
2022-07-28T22:35:03.484Z,97213.03
2022-07-28T22:37:30.036Z,97220.44
2022-07-28T22:39:56.588Z,97213.84
2022-07-28T22:42:23.144Z,97222.88
2022-07-28T22:44:49.713Z,97214.66
2022-07-28T22:47:16.853Z,97220.00
2022-07-28T22:49:43.419Z,97214.88
2022-07-28T22:52:09.969Z,97210.41
2022-07-28T22:54:40.179Z,97207.75
2022-07-28T22:57:06.922Z,97203.47
2022-07-28T22:59:38.565Z,97210.41
2022-07-28T23:02:07.024Z,97207.16
2022-07-28T23:04:33.624Z,97213.06
2022-07-28T23:07:00.161Z,97204.78
2022-07-28T23:09:27.208Z,97207.59
2022-07-28T23:11:55.718Z,97208.19
2022-07-28T23:14:22.936Z,97212.31
2022-07-28T23:16:49.514Z,97206.56
2022-07-28T23:19:16.470Z,97205.75
2022-07-28T23:21:43.051Z,97204.94
2022-07-28T23:24:09.604Z,97209.59
2022-07-28T23:26:36.167Z,97198.75
2022-07-28T23:29:02.711Z,97201.94
2022-07-28T23:31:29.409Z,97196.25
2022-07-28T23:33:57.663Z,97188.88
2022-07-28T23:36:27.552Z,97190.50
2022-07-28T23:38:58.892Z,97187.25
2022-07-28T23:41:26.455Z,97188.44
2022-07-28T23:43:53.479Z,97185.91
2022-07-28T23:46:20.128Z,97183.03
2022-07-28T23:48:46.859Z,97180.44
2022-07-28T23:51:16.251Z,97184.34
2022-07-28T23:53:42.894Z,97190.16
2022-07-28T23:56:09.899Z,97184.91
2022-07-28T23:58:36.448Z,97171.59
